Main page
METAR-TAF:

METAR-TAF

Airports :

Daşoguz Airport

Daşoguz, Turkmenistan

latitude: 41-45-53N, longitude: 059-49-59E, elevation: 83 m

Current weather observation

The report was made 29 minutes ago, at 21:00 UTC
Wind 4 kt from the South/Southwest
Temperature 10°C
Humidity 71%
Pressure 1023 hPa
Visibility 10 km or more
no clouds below 1500 m and no cumulonimbus

METAR: UTAT 222100Z 21004KT CAVOK 10/05 Q1023 NOSIG

Time: 02:29 (21:29 UTC)

Forecast

The report was made 4 hours and 55 minutes ago, at 16:34 UTC
Forecast valid from 22 at 18 UTC to 23 at 18 UTC
Wind 14 kt from the West
Visibility 10 km or more
Scattered clouds at a height of 2000 ft
Broken clouds at a height of 5000 ft
Temporary
from 22 at 18 UTC to 22 at 24 UTC
Wind 14 kt from the North

TAF: UTAT 221634Z 2218/2318 27014KT 9999 SCT020 BKN050 TEMPO 2218/2224 36014KT

Weather observations and forecasts of more than 4000 airports (METAR and TAF reports).

The available stations are represented by yellow and red dots on the map.

Hover mouse over dot to see the name of the station.

Then click to see weather observations and forecasts.

To change the map : click on the green buttons with a black cross to zoom in, on the green button with a dash to zoom out, or on the green arrows for adjacent maps.


METAR-TAF: